Flight Track Log - Related Links

Times and Time Zones

All times are in EDT time to prevent confusion due to time zone crossing. See the N523JM flight status page for this flight to view local times or setup timezone preferences in your user account.

Time Position Orientation Groundspeed Altitude Reporting Facility
EDT Latitude Longitude Course Direction KTS MPH feet Rate Location/Type
Sun 01:18:08 PM 26.7686 -80.2117 341° North 242 278 5,000  Level Miami Center
Sun 01:19:08 PM 26.8256 -80.2878 310° West 269 310 8,000 2,800 Climbing Miami Center
Sun 01:20:08 PM 26.8786 -80.3406 318° Northwest 278 320 10,600 2,600 Climbing Miami Center
Sun 01:21:08 PM 26.9569 -80.3756 338° Northwest 293 337 13,200 2,850 Climbing Miami Center
Sun 01:22:00 PM 27.3481 -80.2238 341° North  Level Estimated
Sun 01:22:08 PM 27.0478 -80.4203 336° Northwest 320 368 16,300  Level Miami Center
Sun 01:23:08 PM 27.1303 -80.4625 336° Northwest 325 374 18,800 2,200 Climbing Miami Center
Sun 01:24:08 PM 27.2103 -80.5142 330° Northwest 325 374 20,700 1,700 Climbing Miami Center
Sun 01:25:08 PM 27.2900 -80.5819 323° Northwest 336 387 22,200 1,500 Climbing Miami Center
Sun 01:26:08 PM 27.3872 -80.6203 341° North 349 402 23,700 1,500 Climbing Miami Center
Sun 01:27:08 PM 27.4797 -80.6772 331° Northwest 368 423 25,200 1,550 Climbing Miami Center
Sun 01:28:08 PM 27.5742 -80.7342 332° Northwest 374 430 26,800 1,400 Climbing Miami Center
Sun 01:29:08 PM 27.6522 -80.7814 332° Northwest 382 440 28,000 1,250 Climbing Miami Center
Sun 01:30:08 PM 27.7633 -80.8367 336° Northwest 395 455 29,300 1,200 Climbing Miami Center
Sun 01:31:08 PM 27.8708 -80.8803 340° North 400 460 30,400 1,150 Climbing Miami Center
Sun 01:32:08 PM 27.9800 -80.9267 339° North 412 474 31,600 1,150 Climbing Miami Center
Sun 01:33:08 PM 28.0872 -80.9706 340° North 412 474 32,700 1,150 Climbing Miami Center
Sun 01:34:08 PM 28.2008 -81.0169 340° North 412 474 33,900 1,150 Climbing Miami Center
Sun 01:35:08 PM 28.3058 -81.0633 339° North 417 480 35,000 1,100 Climbing Miami Center
Sun 01:36:08 PM 28.4111 -81.1072 340° North 407 468 36,100 1,053 Climbing Miami Center
Sun 01:37:02 PM 28.5181 -81.1561 338° Northwest 407 468 37,000 474 Climbing Jacksonville Center
Sun 01:38:02 PM 28.6272 -81.2039 339° North 407 468 37,000  Level Jacksonville Center
Sun 01:39:02 PM 28.7422 -81.2256 351° North 412 474 37,000  Level Jacksonville Center
Sun 01:40:02 PM 28.8717 -81.2353 356° North 437 503 37,000  Level Jacksonville Center
Sun 01:41:03 PM 28.9992 -81.2450 356° North 451 519 37,000  Level Jacksonville Center
Sun 01:42:02 PM 29.1308 -81.2547 356° North 462 532 37,000  Level Jacksonville Center
Sun 01:43:02 PM 29.2603 -81.2622 357° North 462 532 37,000  Level Jacksonville Center
Sun 01:44:02 PM 29.3897 -81.2694 357° North 462 532 37,000  Level Jacksonville Center
Sun 01:45:02 PM 29.5194 -81.2839 354° North 462 532 37,000  Level Jacksonville Center
Sun 01:46:02 PM 29.6511 -81.2939 356° North 462 532 37,000  Level Jacksonville Center
Sun 01:47:03 PM 29.7828 -81.3011 357° North 462 532 37,000  Level Jacksonville Center
Sun 01:48:02 PM 29.9122 -81.3111 356° North 462 532 37,000  Level Jacksonville Center
Sun 01:49:02 PM 30.0439 -81.3208 356° North 462 532 37,000  Level Jacksonville Center
Sun 01:50:02 PM 30.1631 -81.3286 357° North 468 539 37,000  Level Jacksonville Center
Sun 01:51:02 PM 30.2947 -81.3361 357° North 468 539 37,000  Level Jacksonville Center
Sun 01:52:02 PM 30.4283 -81.3458 356° North 473 544 37,000  Level Jacksonville Center
Sun 01:53:02 PM 30.5600 -81.3583 355° North 473 544 37,000  Level Jacksonville Center
Sun 01:54:02 PM 30.6936 -81.3658 357° North 478 550 37,000  Level Jacksonville Center
Sun 01:55:02 PM 30.8253 -81.3758 356° North 478 550 37,000  Level Jacksonville Center
Sun 01:56:02 PM 30.9569 -81.3881 355° North 478 550 37,000  Level Jacksonville Center
Sun 01:57:02 PM 31.0886 -81.3983 356° North 478 550 37,000  Level Jacksonville Center
Sun 01:58:02 PM 31.2225 -81.4083 356° North 478 550 37,000  Level Jacksonville Center
Sun 01:59:03 PM 31.3644 -81.4181 357° North 478 550 37,000  Level Jacksonville Center
Sun 02:00:02 PM 31.4836 -81.4261 357° North 466 536 37,000  Level Jacksonville Center
Sun 02:01:02 PM 31.6300 -81.4383 356° North 472 543 37,000  Level Jacksonville Center
Sun 02:02:03 PM 31.7617 -81.4508 355° North 472 543 37,000  Level Jacksonville Center
Sun 02:03:02 PM 31.8808 -81.4589 357° North 482 555 37,000  Level Jacksonville Center
Sun 02:04:02 PM 32.0269 -81.4714 356° North 482 555 37,000  Level Jacksonville Center
Sun 02:05:03 PM 32.1628 -81.4839 356° North 482 555 37,000  Level Jacksonville Center
Sun 02:06:02 PM 32.2861 -81.4942 356° North 482 555 37,000  Level Jacksonville Center
Sun 02:07:02 PM 32.4344 -81.5019 357° North 477 549 37,000  Level Jacksonville Center
Sun 02:08:02 PM 32.5536 -81.5100 357° North 477 549 37,000  Level Jacksonville Center
Sun 02:09:02 PM 32.6997 -81.5200 357° North 477 549 37,000  Level Jacksonville Center
Sun 02:10:02 PM 32.8356 -81.5328 355° North 477 549 37,000  Level Jacksonville Center
Sun 02:11:02 PM 32.9694 -81.5456 355° North 477 549 37,000  Level Jacksonville Center
Sun 02:12:02 PM 33.1031 -81.5561 356° North 482 555 37,000  Level Jacksonville Center
Sun 02:13:02 PM 33.2367 -81.5614 358° North 477 549 37,000  Level Jacksonville Center
Sun 02:14:55 PM 33.4836 -81.5831 356° North 474 545 37,000  Level Atlanta Center
Sun 02:15:55 PM 33.6175 -81.5917 357° North 474 545 37,000  Level Atlanta Center
Sun 02:16:55 PM 33.7386 -81.6008 356° North 479 551 37,000  Level Atlanta Center
Sun 02:17:55 PM 33.8744 -81.6094 357° North 479 551 37,000  Level Atlanta Center
Sun 02:18:55 PM 34.0064 -81.6206 356° North 479 551 37,000  Level Atlanta Center
Sun 02:19:55 PM 34.1400 -81.6319 356° North 479 551 37,000  Level Atlanta Center
Sun 02:20:55 PM 34.2739 -81.6431 356° North 479 551 37,000  Level Atlanta Center
Sun 02:21:55 PM 34.4097 -81.6569 355° North 479 551 37,000 50 Level Atlanta Center
Sun 02:22:55 PM 34.5436 -81.6683 356° North 479 551 37,100 300 Climbing Atlanta Center
Sun 02:23:55 PM 34.6753 -81.6822 355° North 479 551 37,600 450 Climbing Atlanta Center
Sun 02:24:55 PM 34.8050 -81.6939 356° North 479 551 38,000 200 Climbing Atlanta Center
Sun 02:25:55 PM 34.9386 -81.7028 357° North 474 545 38,000  Level Atlanta Center
Sun 02:26:55 PM 35.0808 -81.7139 356° North 468 539 38,000  Level Atlanta Center
Sun 02:27:55 PM 35.2144 -81.7253 356° North 468 539 38,000  Level Atlanta Center
Sun 02:28:55 PM 35.3461 -81.7369 356° North 474 545 38,000  Level Atlanta Center
Sun 02:29:55 PM 35.4800 -81.7486 356° North 480 552 38,000  Level Atlanta Center
Sun 02:30:55 PM 35.6136 -81.7575 357° North 480 552 38,000  Level Atlanta Center
Sun 02:31:55 PM 35.7328 -81.7697 355° North 480 552 38,000  Level Atlanta Center
Sun 02:32:55 PM 35.8664 -81.7786 357° North 480 552 38,000  Level Atlanta Center
Sun 02:33:55 PM 36.0022 -81.7878 357° North 480 552 38,000  Level Atlanta Center
Sun 02:34:55 PM 36.1297 -81.7997 356° North 480 552 38,000 -100 Level Atlanta Center
Sun 02:35:55 PM 36.2611 -81.8089 357° North 475 547 37,800 -350 Descending Atlanta Center
Sun 02:36:55 PM 36.4053 -81.8203 356° North 475 547 37,300 -400 Descending Atlanta Center
Sun 02:37:55 PM 36.5222 -81.8300 356° North 480 552 37,000 -93 Descending Atlanta Center
Sun 02:40:08 PM 36.8319 -81.8561 356° North 476 548 37,000  Level Indianapolis Center
Sun 02:41:10 PM 36.9647 -81.8675 356° North 479 551 37,000  Level Indianapolis Center
Sun 02:42:12 PM 37.0972 -81.8797 356° North 478 550 37,000 -339 Level Indianapolis Center
Sun 02:43:14 PM 37.2311 -81.8911 356° North 481 554 36,300 -823 Descending Indianapolis Center
Sun 02:44:16 PM 37.3664 -81.9019 356° North 486 559 35,300 -1,113 Descending Indianapolis Center
Sun 02:45:18 PM 37.5250 -81.9164 356° North 488 562 34,000 -1,161 Descending Indianapolis Center
Sun 02:46:20 PM 37.6628 -81.9294 356° North 494 568 32,900 -1,016 Descending Indianapolis Center
Sun 02:47:22 PM 37.7997 -81.9397 357° North 493 567 31,900 -919 Descending Indianapolis Center
Sun 02:48:24 PM 37.9475 -81.9536 356° North 496 571 31,000 -435 Descending Indianapolis Center
Sun 02:49:26 PM 38.0850 -81.9650 356° North 492 566 31,000 -624 Level Indianapolis Center
Sun 02:50:29 PM 38.2189 -81.9772 356° North 484 557 29,700 -1,344 Descending Indianapolis Center
Sun 02:51:31 PM 38.3561 -81.9911 355° North 489 563 28,200 -1,403 Descending Indianapolis Center
Sun 02:52:33 PM 38.4939 -82.0036 356° North 490 564 26,800 -1,403 Descending Indianapolis Center
Sun 02:53:35 PM 38.6286 -82.0153 356° North 482 555 25,300 -1,597 Descending Indianapolis Center
Sun 02:54:37 PM 38.7586 -82.0281 356° North 466 536 23,500 -2,081 Descending Indianapolis Center
Sun 02:55:39 PM 38.8925 -82.0794 343° North 415 478 21,000 -2,177 Descending Indianapolis Center
Sun 02:56:41 PM 39.0008 -82.1236 342° North 409 471 19,000 -1,887 Descending Indianapolis Center
Sun 02:57:43 PM 39.1081 -82.1664 343° North 403 464 17,100 -1,887 Descending Indianapolis Center
Sun 02:58:45 PM 39.2136 -82.2083 343° North 397 457 15,100 -1,839 Descending Indianapolis Center
Sun 02:59:47 PM 39.3164 -82.2500 343° North 390 449 13,300 -1,946 Descending Indianapolis Center
Sun 02:59:59 PM 39.3497 -82.2658 340° North 386 444 12,700 -2,167 Descending Indianapolis Center
Sun 03:00:23 PM 39.3903 -82.2800 345° North 388 447 12,000 -1,320 Descending Indianapolis Center
Sun 03:00:49 PM 39.4200 -82.2917 343° North 389 448 11,600 -982 Descending Indianapolis Center
Sun 03:01:18 PM 39.4856 -82.3186 342° North 387 445 11,100 -484 Descending Indianapolis Center
Sun 03:01:51 PM 39.5200 -82.3328 342° North 382 440 11,100 -98 Level Indianapolis Center
Sun 03:02:19 PM 39.5681 -82.3797 323° Northwest 346 398 11,000 -97 Descending Indianapolis Center
Sun 03:02:53 PM 39.6106 -82.4172 326° Northwest 338 389 11,000 -358 Level Indianapolis Center
Sun 03:03:26 PM 39.6478 -82.4514 325° Northwest 320 368 10,600 -774 Descending Indianapolis Center
Sun 03:03:55 PM 39.6819 -82.4811 326° Northwest 317 365 10,200 -492 Descending Indianapolis Center
Sun 03:04:27 PM 39.7214 -82.5197 323° Northwest 302 348 10,100 -190 Descending Indianapolis Center
Sun 03:04:58 PM 39.7494 -82.5431 327° Northwest 301 346 10,000 -492 Descending Indianapolis Center
Sun 03:05:28 PM 39.7856 -82.5758 325° Northwest 272 313 9,600 -968 Descending Indianapolis Center
Sun 03:06:00 PM 39.8089 -82.5964 326° Northwest 266 306 9,000 -1,377 Descending Indianapolis Center
Sun 03:06:29 PM 39.8436 -82.6286 325° Northwest 252 290 8,200 -1,258 Descending Indianapolis Center
Sun 03:07:02 PM 39.8675 -82.6497 326° Northwest 259 298 7,700 -1,279 Descending Indianapolis Center
Sun 03:07:30 PM 39.9017 -82.6811 325° Northwest 256 295 6,900 -1,355 Descending Indianapolis Center
Sun 03:08:04 PM 39.9258 -82.7017 327° Northwest 256 295 6,300 -1,672 Descending Indianapolis Center
Sun 03:08:31 PM 39.9617 -82.7369 323° Northwest 244 281 5,200 -1,839 Descending Indianapolis Center
Sun 03:09:06 PM 39.9908 -82.7611 328° Northwest 246 283 4,400 -1,600 Descending Indianapolis Center
Sun 03:09:31 PM 40.0089 -82.7936 306° West 230 265 3,600 -1,355 Descending Indianapolis Center
Sun 03:10:08 PM 40.0286 -82.8272 307° West 235 270 3,000 -581 Descending Indianapolis Center
Sun 03:10:33 PM 40.0450 -82.8567 306° West 213 245 3,000  Level Indianapolis Center
Sun 03:11:10 PM 40.0644 -82.8839 313° West 221 254 3,000 100 Level Indianapolis Center
Sun 03:11:33 PM 40.0736 -82.9078 297° West 161 185 3,100  Climbing Indianapolis Center
Sun 03:12:12 PM 40.0783 -82.9342 283° West 180 207 3,000 -327 Descending Indianapolis Center
Sun 03:12:28 PM 40.0819 -82.9556 282° West 134 154 2,800 -677 Descending Indianapolis Center
Sun 03:13:14 PM 40.0822 -82.9822 271° West 153 176 2,300 -806 Descending Indianapolis Center
Sun 03:13:35 PM 40.0792 -83.0069 261° West 120 138 1,900 -871 Descending Indianapolis Center
Sun 03:14:16 PM 40.0789 -83.0367 269° West 135 155 1,400 -350 Descending Indianapolis Center
Sun 03:15:18 PM 40.0769 -83.0811 267° West 132 152 1,300 -97 Descending Indianapolis Center

Login

Don't have an account? Register now (free) for customized features, flight alerts, and more!